Terminal Aerodrome Forecast
Issued by NWS

Home | Current Version | Previous Version | Text Only | Print | Product List | Glossary On
Versions: 1 2 3 4 5 6 7 8 9 10 11 12 13
000
FTUS41 KPBZ 270520
TAFFKL
TAF
KFKL 270520Z 2706/2806 30005KT P6SM BKN050
     FM271200 28008KT 4SM -SHRASN BKN015
     FM271800 30010G20KT P6SM BKN025
     FM280000 36007KT P6SM BKN035
      AMD LTD TO CLD VIS AND WIND=

USA.gov is the U.S. government's official web portal to all federal, state and local government web resources and services.